sensor_id;sensor_type;location;lat;lon;timestamp;temperature;humidity
16846;DHT22;8539;53.188;8.696;2023-12-14T00:01:12;3.70;99.90
16846;DHT22;8539;53.188;8.696;2023-12-14T00:03:40;3.70;99.90
16846;DHT22;8539;53.188;8.696;2023-12-14T00:06:08;3.60;99.90
16846;DHT22;8539;53.188;8.696;2023-12-14T00:08:34;3.70;99.90
16846;DHT22;8539;53.188;8.696;2023-12-14T00:11:10;3.60;99.90
16846;DHT22;8539;53.188;8.696;2023-12-14T00:13:36;3.70;99.90
16846;DHT22;8539;53.188;8.696;2023-12-14T00:16:03;3.70;99.90
16846;DHT22;8539;53.188;8.696;2023-12-14T00:18:29;3.70;99.90
16846;DHT22;8539;53.188;8.696;2023-12-14T00:20:55;3.60;99.90
16846;DHT22;8539;53.188;8.696;2023-12-14T00:23:22;3.60;99.90
16846;DHT22;8539;53.188;8.696;2023-12-14T00:25:48;3.60;99.90
16846;DHT22;8539;53.188;8.696;2023-12-14T00:28:14;3.60;99.90
16846;DHT22;8539;53.188;8.696;2023-12-14T00:30:41;3.80;99.90
16846;DHT22;8539;53.188;8.696;2023-12-14T00:33:07;3.60;99.90
16846;DHT22;8539;53.188;8.696;2023-12-14T00:35:33;3.90;99.90
16846;DHT22;8539;53.188;8.696;2023-12-14T00:37:59;3.70;99.90
16846;DHT22;8539;53.188;8.696;2023-12-14T00:40:25;3.70;99.90
16846;DHT22;8539;53.188;8.696;2023-12-14T00:42:51;3.70;99.90
16846;DHT22;8539;53.188;8.696;2023-12-14T00:45:17;3.60;99.90
16846;DHT22;8539;53.188;8.696;2023-12-14T00:47:43;3.70;99.90
16846;DHT22;8539;53.188;8.696;2023-12-14T00:50:09;3.70;99.90
16846;DHT22;8539;53.188;8.696;2023-12-14T00:52:36;3.70;99.90
16846;DHT22;8539;53.188;8.696;2023-12-14T00:55:02;3.70;99.90
16846;DHT22;8539;53.188;8.696;2023-12-14T00:57:28;3.70;99.90
16846;DHT22;8539;53.188;8.696;2023-12-14T00:59:54;3.70;99.90
16846;DHT22;8539;53.188;8.696;2023-12-14T01:02:20;3.70;99.90
16846;DHT22;8539;53.188;8.696;2023-12-14T01:04:46;3.70;99.90
16846;DHT22;8539;53.188;8.696;2023-12-14T01:07:12;3.70;99.90
16846;DHT22;8539;53.188;8.696;2023-12-14T01:09:38;3.70;99.90
16846;DHT22;8539;53.188;8.696;2023-12-14T01:12:05;3.70;99.90
16846;DHT22;8539;53.188;8.696;2023-12-14T01:14:31;3.70;99.90
16846;DHT22;8539;53.188;8.696;2023-12-14T01:16:57;3.70;99.90
16846;DHT22;8539;53.188;8.696;2023-12-14T01:19:23;3.70;99.90
16846;DHT22;8539;53.188;8.696;2023-12-14T01:21:51;3.70;99.90
16846;DHT22;8539;53.188;8.696;2023-12-14T01:24:17;3.70;99.90
16846;DHT22;8539;53.188;8.696;2023-12-14T01:26:43;3.70;99.90
16846;DHT22;8539;53.188;8.696;2023-12-14T01:29:09;3.70;99.90
16846;DHT22;8539;53.188;8.696;2023-12-14T01:31:37;3.70;99.90
16846;DHT22;8539;53.188;8.696;2023-12-14T01:34:03;3.70;99.90
16846;DHT22;8539;53.188;8.696;2023-12-14T01:36:29;3.70;99.90
16846;DHT22;8539;53.188;8.696;2023-12-14T01:38:55;3.90;99.90
16846;DHT22;8539;53.188;8.696;2023-12-14T01:41:21;3.70;99.90
16846;DHT22;8539;53.188;8.696;2023-12-14T01:43:47;3.70;99.90
16846;DHT22;8539;53.188;8.696;2023-12-14T01:46:13;3.70;99.90
16846;DHT22;8539;53.188;8.696;2023-12-14T01:48:41;3.70;99.90
16846;DHT22;8539;53.188;8.696;2023-12-14T01:51:07;3.70;99.90
16846;DHT22;8539;53.188;8.696;2023-12-14T01:53:33;3.70;99.90
16846;DHT22;8539;53.188;8.696;2023-12-14T01:55:59;3.70;99.90
16846;DHT22;8539;53.188;8.696;2023-12-14T01:58:25;3.70;99.90
16846;DHT22;8539;53.188;8.696;2023-12-14T02:03:47;3.60;99.90
16846;DHT22;8539;53.188;8.696;2023-12-14T02:06:15;3.60;99.90
16846;DHT22;8539;53.188;8.696;2023-12-14T02:08:41;3.50;99.90
16846;DHT22;8539;53.188;8.696;2023-12-14T02:11:07;3.50;99.90
16846;DHT22;8539;53.188;8.696;2023-12-14T02:13:34;3.40;99.90
16846;DHT22;8539;53.188;8.696;2023-12-14T02:16:00;3.40;99.90
16846;DHT22;8539;53.188;8.696;2023-12-14T02:18:26;3.40;99.90
16846;DHT22;8539;53.188;8.696;2023-12-14T02:20:52;3.30;99.90
16846;DHT22;8539;53.188;8.696;2023-12-14T02:23:18;3.40;99.90
16846;DHT22;8539;53.188;8.696;2023-12-14T02:25:44;3.40;99.90
16846;DHT22;8539;53.188;8.696;2023-12-14T02:28:10;3.40;99.90
16846;DHT22;8539;53.188;8.696;2023-12-14T02:30:36;3.40;99.90
16846;DHT22;8539;53.188;8.696;2023-12-14T02:33:02;3.40;99.90
16846;DHT22;8539;53.188;8.696;2023-12-14T02:35:28;3.40;99.90
16846;DHT22;8539;53.188;8.696;2023-12-14T02:37:54;3.50;99.90
16846;DHT22;8539;53.188;8.696;2023-12-14T02:40:20;3.50;99.90
16846;DHT22;8539;53.188;8.696;2023-12-14T02:42:46;3.50;99.90
16846;DHT22;8539;53.188;8.696;2023-12-14T02:45:12;3.50;99.90
16846;DHT22;8539;53.188;8.696;2023-12-14T02:47:38;3.50;99.90
16846;DHT22;8539;53.188;8.696;2023-12-14T02:50:05;3.50;99.90
16846;DHT22;8539;53.188;8.696;2023-12-14T02:52:31;3.50;99.90
16846;DHT22;8539;53.188;8.696;2023-12-14T02:54:57;3.60;99.90
16846;DHT22;8539;53.188;8.696;2023-12-14T02:57:23;3.60;99.90
16846;DHT22;8539;53.188;8.696;2023-12-14T02:59:49;3.60;99.90
16846;DHT22;8539;53.188;8.696;2023-12-14T03:02:15;3.60;99.90
16846;DHT22;8539;53.188;8.696;2023-12-14T03:04:41;3.60;99.90
16846;DHT22;8539;53.188;8.696;2023-12-14T03:07:07;3.60;99.90
16846;DHT22;8539;53.188;8.696;2023-12-14T03:09:33;3.60;99.90
16846;DHT22;8539;53.188;8.696;2023-12-14T03:12:02;3.50;99.90
16846;DHT22;8539;53.188;8.696;2023-12-14T03:14:33;3.60;99.90
16846;DHT22;8539;53.188;8.696;2023-12-14T03:16:59;3.70;99.90
16846;DHT22;8539;53.188;8.696;2023-12-14T03:19:26;3.60;99.90
16846;DHT22;8539;53.188;8.696;2023-12-14T03:21:52;3.60;99.90
16846;DHT22;8539;53.188;8.696;2023-12-14T03:24:18;3.60;99.90
16846;DHT22;8539;53.188;8.696;2023-12-14T03:26:44;3.60;99.90
16846;DHT22;8539;53.188;8.696;2023-12-14T03:29:10;3.60;99.90
16846;DHT22;8539;53.188;8.696;2023-12-14T03:31:36;3.80;99.90
16846;DHT22;8539;53.188;8.696;2023-12-14T03:34:02;3.60;99.90
16846;DHT22;8539;53.188;8.696;2023-12-14T03:36:29;3.60;99.90
16846;DHT22;8539;53.188;8.696;2023-12-14T03:38:55;3.60;99.90
16846;DHT22;8539;53.188;8.696;2023-12-14T03:41:21;3.60;99.90
16846;DHT22;8539;53.188;8.696;2023-12-14T03:43:46;3.60;99.90
16846;DHT22;8539;53.188;8.696;2023-12-14T03:46:13;3.60;99.90
16846;DHT22;8539;53.188;8.696;2023-12-14T03:48:39;3.60;99.90
16846;DHT22;8539;53.188;8.696;2023-12-14T03:51:05;3.70;99.90
16846;DHT22;8539;53.188;8.696;2023-12-14T03:53:31;3.70;99.90
16846;DHT22;8539;53.188;8.696;2023-12-14T03:55:58;3.70;99.90
16846;DHT22;8539;53.188;8.696;2023-12-14T03:58:24;3.70;99.90
16846;DHT22;8539;53.188;8.696;2023-12-14T04:00:50;3.80;99.90
16846;DHT22;8539;53.188;8.696;2023-12-14T04:03:16;3.80;99.90
16846;DHT22;8539;53.188;8.696;2023-12-14T04:05:42;3.80;99.90
16846;DHT22;8539;53.188;8.696;2023-12-14T04:08:10;3.80;99.90
16846;DHT22;8539;53.188;8.696;2023-12-14T04:10:36;3.80;99.90
16846;DHT22;8539;53.188;8.696;2023-12-14T04:13:03;3.80;99.90
16846;DHT22;8539;53.188;8.696;2023-12-14T04:15:29;3.80;99.90
16846;DHT22;8539;53.188;8.696;2023-12-14T04:17:55;3.90;99.90
16846;DHT22;8539;53.188;8.696;2023-12-14T04:20:21;3.80;99.90
16846;DHT22;8539;53.188;8.696;2023-12-14T04:22:47;3.80;99.90
16846;DHT22;8539;53.188;8.696;2023-12-14T04:25:14;3.80;99.90
16846;DHT22;8539;53.188;8.696;2023-12-14T04:27:40;3.80;99.90
16846;DHT22;8539;53.188;8.696;2023-12-14T04:30:06;3.80;99.90
16846;DHT22;8539;53.188;8.696;2023-12-14T04:32:37;3.80;99.90
16846;DHT22;8539;53.188;8.696;2023-12-14T04:35:04;3.80;99.90
16846;DHT22;8539;53.188;8.696;2023-12-14T04:37:30;3.90;99.90
16846;DHT22;8539;53.188;8.696;2023-12-14T04:40:00;3.90;99.90
16846;DHT22;8539;53.188;8.696;2023-12-14T04:42:26;3.90;99.90
16846;DHT22;8539;53.188;8.696;2023-12-14T04:44:52;3.90;99.90
16846;DHT22;8539;53.188;8.696;2023-12-14T04:47:18;3.90;99.90
16846;DHT22;8539;53.188;8.696;2023-12-14T04:49:44;3.90;99.90
16846;DHT22;8539;53.188;8.696;2023-12-14T04:52:10;3.90;99.90
16846;DHT22;8539;53.188;8.696;2023-12-14T04:54:36;3.90;99.90
16846;DHT22;8539;53.188;8.696;2023-12-14T04:57:04;3.90;99.90
16846;DHT22;8539;53.188;8.696;2023-12-14T04:59:30;3.90;99.90
16846;DHT22;8539;53.188;8.696;2023-12-14T05:01:56;3.90;99.90
16846;DHT22;8539;53.188;8.696;2023-12-14T05:04:23;3.90;99.90
16846;DHT22;8539;53.188;8.696;2023-12-14T05:06:49;3.90;99.90
16846;DHT22;8539;53.188;8.696;2023-12-14T05:09:15;3.90;99.90
16846;DHT22;8539;53.188;8.696;2023-12-14T05:11:41;3.90;99.90
16846;DHT22;8539;53.188;8.696;2023-12-14T05:14:07;3.90;99.90
16846;DHT22;8539;53.188;8.696;2023-12-14T05:16:33;4.00;99.90
16846;DHT22;8539;53.188;8.696;2023-12-14T05:18:59;3.90;99.90
16846;DHT22;8539;53.188;8.696;2023-12-14T05:21:26;3.90;99.90
16846;DHT22;8539;53.188;8.696;2023-12-14T05:23:52;4.00;99.90
16846;DHT22;8539;53.188;8.696;2023-12-14T05:26:19;4.00;99.90
16846;DHT22;8539;53.188;8.696;2023-12-14T05:28:45;4.00;99.90
16846;DHT22;8539;53.188;8.696;2023-12-14T05:31:11;4.00;99.90
16846;DHT22;8539;53.188;8.696;2023-12-14T05:33:39;4.00;99.90
16846;DHT22;8539;53.188;8.696;2023-12-14T05:36:06;4.20;99.90
16846;DHT22;8539;53.188;8.696;2023-12-14T05:38:38;3.90;99.90
16846;DHT22;8539;53.188;8.696;2023-12-14T05:41:04;3.90;99.90
16846;DHT22;8539;53.188;8.696;2023-12-14T05:43:31;3.90;99.90
16846;DHT22;8539;53.188;8.696;2023-12-14T05:45:57;3.90;99.90
16846;DHT22;8539;53.188;8.696;2023-12-14T05:48:24;3.90;99.90
16846;DHT22;8539;53.188;8.696;2023-12-14T05:50:51;3.90;99.90
16846;DHT22;8539;53.188;8.696;2023-12-14T05:53:17;4.10;99.90
16846;DHT22;8539;53.188;8.696;2023-12-14T05:55:43;3.90;99.90
16846;DHT22;8539;53.188;8.696;2023-12-14T05:58:09;3.90;99.90
16846;DHT22;8539;53.188;8.696;2023-12-14T06:00:36;4.00;99.90
16846;DHT22;8539;53.188;8.696;2023-12-14T06:03:02;4.00;99.90
16846;DHT22;8539;53.188;8.696;2023-12-14T06:05:28;4.00;99.90
16846;DHT22;8539;53.188;8.696;2023-12-14T06:07:54;4.00;99.90
16846;DHT22;8539;53.188;8.696;2023-12-14T06:10:21;4.00;99.90
16846;DHT22;8539;53.188;8.696;2023-12-14T06:12:50;4.00;99.90
16846;DHT22;8539;53.188;8.696;2023-12-14T06:15:16;4.00;99.90
16846;DHT22;8539;53.188;8.696;2023-12-14T06:17:42;3.90;99.90
16846;DHT22;8539;53.188;8.696;2023-12-14T06:20:09;4.10;99.90
16846;DHT22;8539;53.188;8.696;2023-12-14T06:22:36;4.00;99.90
16846;DHT22;8539;53.188;8.696;2023-12-14T06:25:03;4.00;99.90
16846;DHT22;8539;53.188;8.696;2023-12-14T06:27:30;4.00;99.90
16846;DHT22;8539;53.188;8.696;2023-12-14T06:29:56;3.90;99.90
16846;DHT22;8539;53.188;8.696;2023-12-14T06:32:23;3.90;99.90
16846;DHT22;8539;53.188;8.696;2023-12-14T06:34:49;3.90;99.90
16846;DHT22;8539;53.188;8.696;2023-12-14T06:37:16;3.90;99.90
16846;DHT22;8539;53.188;8.696;2023-12-14T06:39:42;4.00;99.90
16846;DHT22;8539;53.188;8.696;2023-12-14T06:42:08;3.90;99.90
16846;DHT22;8539;53.188;8.696;2023-12-14T06:44:34;4.00;99.90
16846;DHT22;8539;53.188;8.696;2023-12-14T06:47:00;3.90;99.90
16846;DHT22;8539;53.188;8.696;2023-12-14T06:49:26;4.00;99.90
16846;DHT22;8539;53.188;8.696;2023-12-14T06:51:52;4.00;99.90
16846;DHT22;8539;53.188;8.696;2023-12-14T06:54:18;4.00;99.90
16846;DHT22;8539;53.188;8.696;2023-12-14T06:56:45;4.10;99.90
16846;DHT22;8539;53.188;8.696;2023-12-14T06:59:11;4.00;99.90
16846;DHT22;8539;53.188;8.696;2023-12-14T07:01:37;4.00;99.90
16846;DHT22;8539;53.188;8.696;2023-12-14T07:04:03;4.00;99.90
16846;DHT22;8539;53.188;8.696;2023-12-14T07:06:29;4.00;99.90
16846;DHT22;8539;53.188;8.696;2023-12-14T07:08:55;4.00;99.90
16846;DHT22;8539;53.188;8.696;2023-12-14T07:11:21;4.00;99.90
16846;DHT22;8539;53.188;8.696;2023-12-14T07:13:47;4.00;99.90
16846;DHT22;8539;53.188;8.696;2023-12-14T07:16:14;3.90;99.90
16846;DHT22;8539;53.188;8.696;2023-12-14T07:18:41;3.90;99.90
16846;DHT22;8539;53.188;8.696;2023-12-14T07:21:08;4.00;99.90
16846;DHT22;8539;53.188;8.696;2023-12-14T07:23:35;4.00;99.90
16846;DHT22;8539;53.188;8.696;2023-12-14T07:26:01;4.00;99.90
16846;DHT22;8539;53.188;8.696;2023-12-14T07:28:28;3.90;99.90
16846;DHT22;8539;53.188;8.696;2023-12-14T07:30:55;3.90;99.90
16846;DHT22;8539;53.188;8.696;2023-12-14T07:33:21;3.90;99.90
16846;DHT22;8539;53.188;8.696;2023-12-14T07:35:47;3.90;99.90
16846;DHT22;8539;53.188;8.696;2023-12-14T07:38:13;3.90;99.90
16846;DHT22;8539;53.188;8.696;2023-12-14T07:40:39;3.80;99.90
16846;DHT22;8539;53.188;8.696;2023-12-14T07:43:06;3.90;99.90
16846;DHT22;8539;53.188;8.696;2023-12-14T07:45:33;3.90;99.90
16846;DHT22;8539;53.188;8.696;2023-12-14T07:47:59;3.90;99.90
16846;DHT22;8539;53.188;8.696;2023-12-14T07:50:26;3.90;99.90
16846;DHT22;8539;53.188;8.696;2023-12-14T07:52:52;3.90;99.90
16846;DHT22;8539;53.188;8.696;2023-12-14T07:55:19;3.90;99.90
16846;DHT22;8539;53.188;8.696;2023-12-14T07:57:46;3.90;99.90
16846;DHT22;8539;53.188;8.696;2023-12-14T08:00:12;3.90;99.90
16846;DHT22;8539;53.188;8.696;2023-12-14T08:02:39;3.80;99.90
16846;DHT22;8539;53.188;8.696;2023-12-14T08:05:05;3.90;99.90
16846;DHT22;8539;53.188;8.696;2023-12-14T08:07:32;3.90;99.90
16846;DHT22;8539;53.188;8.696;2023-12-14T08:09:59;3.80;99.90
16846;DHT22;8539;53.188;8.696;2023-12-14T08:12:26;3.90;99.90
16846;DHT22;8539;53.188;8.696;2023-12-14T08:14:52;3.90;99.90
16846;DHT22;8539;53.188;8.696;2023-12-14T08:17:18;3.90;99.90
16846;DHT22;8539;53.188;8.696;2023-12-14T08:19:45;3.90;99.90
16846;DHT22;8539;53.188;8.696;2023-12-14T08:22:11;3.90;99.90
16846;DHT22;8539;53.188;8.696;2023-12-14T08:24:38;3.90;99.90
16846;DHT22;8539;53.188;8.696;2023-12-14T08:27:05;3.90;99.90
16846;DHT22;8539;53.188;8.696;2023-12-14T08:29:31;4.00;99.90
16846;DHT22;8539;53.188;8.696;2023-12-14T08:31:57;4.00;99.90
16846;DHT22;8539;53.188;8.696;2023-12-14T08:34:25;4.00;99.90
16846;DHT22;8539;53.188;8.696;2023-12-14T08:36:52;4.00;99.90
16846;DHT22;8539;53.188;8.696;2023-12-14T08:39:18;4.10;99.90
16846;DHT22;8539;53.188;8.696;2023-12-14T08:41:45;4.10;99.90
16846;DHT22;8539;53.188;8.696;2023-12-14T08:44:13;4.10;99.90
16846;DHT22;8539;53.188;8.696;2023-12-14T08:46:44;4.00;99.90
16846;DHT22;8539;53.188;8.696;2023-12-14T08:49:12;4.10;99.90
16846;DHT22;8539;53.188;8.696;2023-12-14T08:51:38;4.10;99.90
16846;DHT22;8539;53.188;8.696;2023-12-14T08:54:05;4.10;99.90
16846;DHT22;8539;53.188;8.696;2023-12-14T08:56:31;4.20;99.90
16846;DHT22;8539;53.188;8.696;2023-12-14T08:58:57;4.40;99.90
16846;DHT22;8539;53.188;8.696;2023-12-14T09:01:25;4.30;99.90
16846;DHT22;8539;53.188;8.696;2023-12-14T09:03:51;4.30;99.90
16846;DHT22;8539;53.188;8.696;2023-12-14T09:06:18;4.30;99.90
16846;DHT22;8539;53.188;8.696;2023-12-14T09:08:44;4.30;99.90
16846;DHT22;8539;53.188;8.696;2023-12-14T09:11:11;4.40;99.90
16846;DHT22;8539;53.188;8.696;2023-12-14T09:13:37;4.40;99.90
16846;DHT22;8539;53.188;8.696;2023-12-14T09:16:04;4.40;99.90
16846;DHT22;8539;53.188;8.696;2023-12-14T09:18:30;4.50;99.90
16846;DHT22;8539;53.188;8.696;2023-12-14T09:20:56;4.60;99.90
16846;DHT22;8539;53.188;8.696;2023-12-14T09:23:22;4.50;99.90
16846;DHT22;8539;53.188;8.696;2023-12-14T09:25:48;4.50;99.90
16846;DHT22;8539;53.188;8.696;2023-12-14T09:28:15;4.50;99.90
16846;DHT22;8539;53.188;8.696;2023-12-14T09:30:41;4.60;99.90
16846;DHT22;8539;53.188;8.696;2023-12-14T09:33:07;4.60;99.90
16846;DHT22;8539;53.188;8.696;2023-12-14T09:35:35;4.60;99.90
16846;DHT22;8539;53.188;8.696;2023-12-14T09:38:06;4.70;99.90
16846;DHT22;8539;53.188;8.696;2023-12-14T09:40:33;4.70;99.90
16846;DHT22;8539;53.188;8.696;2023-12-14T09:43:00;4.70;99.90
16846;DHT22;8539;53.188;8.696;2023-12-14T09:45:30;4.70;99.90
16846;DHT22;8539;53.188;8.696;2023-12-14T09:48:00;4.70;99.90
16846;DHT22;8539;53.188;8.696;2023-12-14T09:50:26;4.70;99.90
16846;DHT22;8539;53.188;8.696;2023-12-14T09:52:53;4.80;99.90
16846;DHT22;8539;53.188;8.696;2023-12-14T09:55:19;4.70;99.90
16846;DHT22;8539;53.188;8.696;2023-12-14T09:57:45;4.70;99.90
16846;DHT22;8539;53.188;8.696;2023-12-14T10:00:12;4.60;99.90
16846;DHT22;8539;53.188;8.696;2023-12-14T10:02:40;4.80;99.90
16846;DHT22;8539;53.188;8.696;2023-12-14T10:05:10;4.80;99.90
16846;DHT22;8539;53.188;8.696;2023-12-14T10:07:43;4.80;99.90
16846;DHT22;8539;53.188;8.696;2023-12-14T10:10:13;4.90;99.90
16846;DHT22;8539;53.188;8.696;2023-12-14T10:12:54;4.90;99.90
16846;DHT22;8539;53.188;8.696;2023-12-14T10:15:20;4.90;99.90
16846;DHT22;8539;53.188;8.696;2023-12-14T10:17:53;4.90;99.90
16846;DHT22;8539;53.188;8.696;2023-12-14T10:20:20;5.00;99.90
16846;DHT22;8539;53.188;8.696;2023-12-14T10:22:53;5.00;99.90
16846;DHT22;8539;53.188;8.696;2023-12-14T10:25:19;5.00;99.90
16846;DHT22;8539;53.188;8.696;2023-12-14T10:27:50;5.10;99.90
16846;DHT22;8539;53.188;8.696;2023-12-14T10:30:18;5.10;99.90
16846;DHT22;8539;53.188;8.696;2023-12-14T10:32:48;5.10;99.90
16846;DHT22;8539;53.188;8.696;2023-12-14T10:35:17;5.10;99.90
16846;DHT22;8539;53.188;8.696;2023-12-14T10:37:47;5.10;99.90
16846;DHT22;8539;53.188;8.696;2023-12-14T10:40:15;5.20;99.90
16846;DHT22;8539;53.188;8.696;2023-12-14T10:42:44;5.20;99.90
16846;DHT22;8539;53.188;8.696;2023-12-14T10:45:12;5.20;99.90
16846;DHT22;8539;53.188;8.696;2023-12-14T10:47:46;5.50;99.90
16846;DHT22;8539;53.188;8.696;2023-12-14T10:50:12;5.30;99.90
16846;DHT22;8539;53.188;8.696;2023-12-14T10:52:39;5.30;99.90
16846;DHT22;8539;53.188;8.696;2023-12-14T10:55:09;5.30;99.90
16846;DHT22;8539;53.188;8.696;2023-12-14T10:57:36;5.30;99.90
16846;DHT22;8539;53.188;8.696;2023-12-14T11:00:03;5.30;99.90
16846;DHT22;8539;53.188;8.696;2023-12-14T11:02:40;5.30;99.90
16846;DHT22;8539;53.188;8.696;2023-12-14T11:05:11;5.30;99.90
16846;DHT22;8539;53.188;8.696;2023-12-14T11:07:50;5.40;99.90
16846;DHT22;8539;53.188;8.696;2023-12-14T11:10:23;5.40;99.90
16846;DHT22;8539;53.188;8.696;2023-12-14T11:15:25;5.40;99.90
16846;DHT22;8539;53.188;8.696;2023-12-14T11:23:12;5.50;99.90
16846;DHT22;8539;53.188;8.696;2023-12-14T11:25:42;5.50;99.90
16846;DHT22;8539;53.188;8.696;2023-12-14T11:28:09;5.50;99.90
16846;DHT22;8539;53.188;8.696;2023-12-14T11:30:36;5.60;99.90
16846;DHT22;8539;53.188;8.696;2023-12-14T11:33:03;5.60;99.90
16846;DHT22;8539;53.188;8.696;2023-12-14T11:35:29;5.60;99.90
16846;DHT22;8539;53.188;8.696;2023-12-14T11:37:56;5.70;99.90
16846;DHT22;8539;53.188;8.696;2023-12-14T11:40:25;5.70;99.90
16846;DHT22;8539;53.188;8.696;2023-12-14T11:42:59;5.70;99.90
16846;DHT22;8539;53.188;8.696;2023-12-14T11:45:25;5.60;99.90
16846;DHT22;8539;53.188;8.696;2023-12-14T11:47:52;5.70;99.90
16846;DHT22;8539;53.188;8.696;2023-12-14T11:50:18;5.70;99.90
16846;DHT22;8539;53.188;8.696;2023-12-14T11:52:45;5.70;99.90
16846;DHT22;8539;53.188;8.696;2023-12-14T11:55:11;5.80;99.90
16846;DHT22;8539;53.188;8.696;2023-12-14T11:57:37;5.80;99.90
16846;DHT22;8539;53.188;8.696;2023-12-14T12:00:05;5.70;99.90
16846;DHT22;8539;53.188;8.696;2023-12-14T12:02:32;5.70;99.90
16846;DHT22;8539;53.188;8.696;2023-12-14T12:05:01;5.60;99.90
16846;DHT22;8539;53.188;8.696;2023-12-14T12:07:27;5.60;99.90
16846;DHT22;8539;53.188;8.696;2023-12-14T12:09:53;5.60;99.90
16846;DHT22;8539;53.188;8.696;2023-12-14T12:12:20;5.60;99.90
16846;DHT22;8539;53.188;8.696;2023-12-14T12:14:46;5.60;99.90
16846;DHT22;8539;53.188;8.696;2023-12-14T12:17:15;5.60;99.90
16846;DHT22;8539;53.188;8.696;2023-12-14T12:19:41;5.70;99.90
16846;DHT22;8539;53.188;8.696;2023-12-14T12:22:08;5.70;99.90
16846;DHT22;8539;53.188;8.696;2023-12-14T12:24:34;5.70;99.90
16846;DHT22;8539;53.188;8.696;2023-12-14T12:27:00;5.70;99.90
16846;DHT22;8539;53.188;8.696;2023-12-14T12:29:27;5.80;99.90
16846;DHT22;8539;53.188;8.696;2023-12-14T12:31:53;5.80;99.90
16846;DHT22;8539;53.188;8.696;2023-12-14T12:34:19;5.80;99.90
16846;DHT22;8539;53.188;8.696;2023-12-14T12:36:45;5.70;99.90
16846;DHT22;8539;53.188;8.696;2023-12-14T12:39:11;5.80;99.90
16846;DHT22;8539;53.188;8.696;2023-12-14T12:41:37;5.80;99.90
16846;DHT22;8539;53.188;8.696;2023-12-14T12:44:06;5.80;99.90
16846;DHT22;8539;53.188;8.696;2023-12-14T12:46:36;5.90;99.90
16846;DHT22;8539;53.188;8.696;2023-12-14T12:49:03;5.90;99.90
16846;DHT22;8539;53.188;8.696;2023-12-14T12:51:31;5.90;99.90
16846;DHT22;8539;53.188;8.696;2023-12-14T12:53:58;5.90;99.90
16846;DHT22;8539;53.188;8.696;2023-12-14T12:56:28;5.90;99.90
16846;DHT22;8539;53.188;8.696;2023-12-14T12:58:54;6.00;99.90
16846;DHT22;8539;53.188;8.696;2023-12-14T13:01:21;6.00;99.90
16846;DHT22;8539;53.188;8.696;2023-12-14T13:03:55;6.00;99.90
16846;DHT22;8539;53.188;8.696;2023-12-14T13:06:25;6.00;99.90
16846;DHT22;8539;53.188;8.696;2023-12-14T13:08:52;6.00;99.90
16846;DHT22;8539;53.188;8.696;2023-12-14T13:11:18;6.00;99.90
16846;DHT22;8539;53.188;8.696;2023-12-14T13:13:44;6.00;99.90
16846;DHT22;8539;53.188;8.696;2023-12-14T13:16:11;6.00;99.90
16846;DHT22;8539;53.188;8.696;2023-12-14T13:18:40;6.00;99.90
16846;DHT22;8539;53.188;8.696;2023-12-14T13:21:06;5.90;99.90
16846;DHT22;8539;53.188;8.696;2023-12-14T13:23:33;5.90;99.90
16846;DHT22;8539;53.188;8.696;2023-12-14T13:25:59;5.90;99.90
16846;DHT22;8539;53.188;8.696;2023-12-14T13:28:25;5.80;99.90
16846;DHT22;8539;53.188;8.696;2023-12-14T13:30:51;5.80;99.90
16846;DHT22;8539;53.188;8.696;2023-12-14T13:33:17;5.70;99.90
16846;DHT22;8539;53.188;8.696;2023-12-14T13:35:44;5.80;99.90
16846;DHT22;8539;53.188;8.696;2023-12-14T13:38:10;5.80;99.90
16846;DHT22;8539;53.188;8.696;2023-12-14T13:40:36;5.70;99.90
16846;DHT22;8539;53.188;8.696;2023-12-14T13:43:02;5.70;99.90
16846;DHT22;8539;53.188;8.696;2023-12-14T13:45:37;5.70;99.90
16846;DHT22;8539;53.188;8.696;2023-12-14T13:48:03;5.70;99.90
16846;DHT22;8539;53.188;8.696;2023-12-14T13:50:30;5.60;99.90
16846;DHT22;8539;53.188;8.696;2023-12-14T13:52:56;5.60;99.90
16846;DHT22;8539;53.188;8.696;2023-12-14T13:55:22;5.50;99.90
16846;DHT22;8539;53.188;8.696;2023-12-14T13:57:48;5.50;99.90
16846;DHT22;8539;53.188;8.696;2023-12-14T14:00:15;5.40;99.90
16846;DHT22;8539;53.188;8.696;2023-12-14T14:02:42;5.30;99.90
16846;DHT22;8539;53.188;8.696;2023-12-14T14:05:09;5.30;99.90
16846;DHT22;8539;53.188;8.696;2023-12-14T14:07:35;5.20;99.90
16846;DHT22;8539;53.188;8.696;2023-12-14T14:10:01;5.10;99.90
16846;DHT22;8539;53.188;8.696;2023-12-14T14:12:27;5.10;99.90
16846;DHT22;8539;53.188;8.696;2023-12-14T14:14:53;5.10;99.90
16846;DHT22;8539;53.188;8.696;2023-12-14T14:17:19;5.10;99.90
16846;DHT22;8539;53.188;8.696;2023-12-14T14:19:45;5.20;99.90
16846;DHT22;8539;53.188;8.696;2023-12-14T14:22:11;5.20;99.90
16846;DHT22;8539;53.188;8.696;2023-12-14T14:24:37;5.10;99.90
16846;DHT22;8539;53.188;8.696;2023-12-14T14:27:03;5.20;99.90
16846;DHT22;8539;53.188;8.696;2023-12-14T14:29:29;5.10;99.90
16846;DHT22;8539;53.188;8.696;2023-12-14T14:31:56;5.00;99.90
16846;DHT22;8539;53.188;8.696;2023-12-14T14:34:21;5.00;99.90
16846;DHT22;8539;53.188;8.696;2023-12-14T14:36:48;4.90;99.90
16846;DHT22;8539;53.188;8.696;2023-12-14T14:39:13;4.90;99.90
16846;DHT22;8539;53.188;8.696;2023-12-14T14:41:42;4.90;99.90
16846;DHT22;8539;53.188;8.696;2023-12-14T14:44:08;5.00;99.90
16846;DHT22;8539;53.188;8.696;2023-12-14T14:46:35;4.90;99.90
16846;DHT22;8539;53.188;8.696;2023-12-14T14:49:01;4.90;99.90
16846;DHT22;8539;53.188;8.696;2023-12-14T14:51:28;4.90;99.90
16846;DHT22;8539;53.188;8.696;2023-12-14T14:53:58;4.80;99.90
16846;DHT22;8539;53.188;8.696;2023-12-14T14:56:24;4.90;99.90
16846;DHT22;8539;53.188;8.696;2023-12-14T14:58:50;4.80;99.90
16846;DHT22;8539;53.188;8.696;2023-12-14T15:01:16;4.80;99.90
16846;DHT22;8539;53.188;8.696;2023-12-14T15:03:42;4.70;99.90
16846;DHT22;8539;53.188;8.696;2023-12-14T15:06:08;4.70;99.90
16846;DHT22;8539;53.188;8.696;2023-12-14T15:08:34;4.60;99.90
16846;DHT22;8539;53.188;8.696;2023-12-14T15:11:00;4.60;99.90
16846;DHT22;8539;53.188;8.696;2023-12-14T15:13:26;4.60;99.90
16846;DHT22;8539;53.188;8.696;2023-12-14T15:15:54;4.60;99.90
16846;DHT22;8539;53.188;8.696;2023-12-14T15:18:21;4.50;99.90
16846;DHT22;8539;53.188;8.696;2023-12-14T15:20:47;4.50;99.90
16846;DHT22;8539;53.188;8.696;2023-12-14T15:23:14;4.40;99.90
16846;DHT22;8539;53.188;8.696;2023-12-14T15:25:40;4.40;99.90
16846;DHT22;8539;53.188;8.696;2023-12-14T15:28:06;4.40;99.90
16846;DHT22;8539;53.188;8.696;2023-12-14T15:30:32;4.30;99.90
16846;DHT22;8539;53.188;8.696;2023-12-14T15:32:58;4.20;99.90
16846;DHT22;8539;53.188;8.696;2023-12-14T15:35:24;4.20;99.90
16846;DHT22;8539;53.188;8.696;2023-12-14T15:37:50;4.10;99.90
16846;DHT22;8539;53.188;8.696;2023-12-14T15:40:16;4.00;99.90
16846;DHT22;8539;53.188;8.696;2023-12-14T15:42:42;3.90;99.90
16846;DHT22;8539;53.188;8.696;2023-12-14T15:45:08;3.80;99.90
16846;DHT22;8539;53.188;8.696;2023-12-14T15:47:34;3.80;99.90
16846;DHT22;8539;53.188;8.696;2023-12-14T15:50:00;3.90;99.90
16846;DHT22;8539;53.188;8.696;2023-12-14T15:52:26;3.60;99.90
16846;DHT22;8539;53.188;8.696;2023-12-14T15:54:54;3.60;99.90
16846;DHT22;8539;53.188;8.696;2023-12-14T15:57:20;3.50;99.90
16846;DHT22;8539;53.188;8.696;2023-12-14T15:59:46;3.50;99.90
16846;DHT22;8539;53.188;8.696;2023-12-14T16:02:12;3.40;99.90
16846;DHT22;8539;53.188;8.696;2023-12-14T16:04:38;3.30;99.90
16846;DHT22;8539;53.188;8.696;2023-12-14T16:07:04;3.30;99.90
16846;DHT22;8539;53.188;8.696;2023-12-14T16:09:31;3.20;99.90